M I D A S
Marine Information and Data Acquisition System
Tripno 2207 of the Zeeleeuw from 2011-10-27 06:42:40 to 2011-10-27 15:51:38
Back to CruiseResearch ActivitiesStationsMapUnderway DataData graphs

EquipmentUnitsComment
TimeDGPSUTC
LatitudeDGPSDM.mWGS84
LongitudeDGPSDM.mWGS84
TemperatureSBE03/SBE38deg celciusITS90
ConductivitySBE21S/mITS90
SalinitySBE21 Practical Salinity Units
ChlorophylAChelsea fluorimeterg/lCalibrated in Aceton
Missing or incorrect values are displayed as -999
Sea surface data collected by the RV Zeeleeuw from 2011-10-27 06:36:40 to 2011-10-27 16:01:03
Time Latitude Longitude Temperature Conductivity Salinity ChlorophylA
2011-10-27 06:37:45 51°13.636 2°56.019 19.2968 0.003026 0.021661 -3.020363
2011-10-27 06:38:45 51°13.637 2°56.008 19.3081 0.003129 0.022113 -3.020363
2011-10-27 06:39:49 51°13.654 2°55.943 19.2949 0.003129 0.022113 -3.020363
2011-10-27 06:40:49 51°13.673 2°55.859 19.3117 0.003129 0.022113 -3.020363
2011-10-27 06:41:48 51°13.692 2°55.768 19.3098 0.003129 0.022113 -3.020363
2011-10-27 06:42:49 51°13.705 2°55.746 19.3418 0.003129 0.022113 -3.020363
2011-10-27 06:43:48 51°13.714 2°55.752 19.3037 0.003129 0.022113 -3.020363
2011-10-27 06:44:49 51°13.743 2°55.722 19.2794 0.003129 0.022113 -3.020363
2011-10-27 06:45:48 51°13.808 2°55.656 19.2535 0.003129 0.022113 -3.020363
2011-10-27 06:46:47 51°13.899 2°55.59 19.246 0.003129 0.022113 -3.020363
2011-10-27 06:47:45 51°14.009 2°55.514 19.2085 0.003129 0.022113 -3.020363
2011-10-27 06:48:45 51°14.136 2°55.418 19.2259 0.003129 0.022113 -3.020363
2011-10-27 06:49:45 51°14.262 2°55.306 19.2456 0.003129 0.022113 -3.020363
2011-10-27 06:50:45 51°14.409 2°55.165 19.2489 0.003129 0.022113 -3.020363
2011-10-27 06:51:45 51°14.557 2°54.996 19.2059 0.003129 0.022113 -3.020363
2011-10-27 06:52:45 51°14.701 2°54.807 19.2155 0.003129 0.022113 -3.020363
2011-10-27 06:53:45 51°14.852 2°54.622 19.1912 0.003129 0.022113 -3.020363
2011-10-27 06:54:45 51°15.01 2°54.423 19.198 0.003129 0.022113 -3.020363
2011-10-27 06:55:45 51°15.178 2°54.241 13.1711 0.003129 0.022112 -3.020363
2011-10-27 06:56:45 51°15.346 2°54.058 12.5004 1.803703 11.691484 -3.020363
2011-10-27 06:57:45 51°15.508 2°53.859 12.415 4.145073 32.486612 -3.020363
2011-10-27 06:58:45 51°15.664 2°53.647 12.403 4.191852 34.459509 -3.020363
2011-10-27 06:59:45 51°15.827 2°53.448 12.427 4.107165 34.168871 -3.020363
2011-10-27 07:00:45 51°15.998 2°53.278 12.4522 4.05742 34.170625 -3.020363
2011-10-27 07:01:45 51°16.168 2°53.103 12.5115 4.031822 34.120908 -3.020363
2011-10-27 07:02:45 51°16.346 2°52.964 12.5509 4.018039 34.05717 -3.020363
2011-10-27 07:03:45 51°16.526 2°52.829 12.6157 4.009853 34.024843 -3.020363
2011-10-27 07:04:45 51°16.701 2°52.687 12.6647 4.006536 33.996499 -3.020363
2011-10-27 07:05:45 51°16.874 2°52.556 12.6958 4.005293 33.967904 -3.020363
2011-10-27 07:06:45 51°17.054 2°52.466 12.7178 4.005396 33.95132 -3.020363
2011-10-27 07:07:45 51°17.235 2°52.383 12.7722 4.006639 33.943245 -3.020363
2011-10-27 07:08:45 51°17.415 2°52.305 12.8249 4.008194 33.935834 -3.020363
2011-10-27 07:09:45 51°17.598 2°52.309 12.8984 4.011613 33.944528 -3.020363
2011-10-27 07:10:45 51°17.78 2°52.326 12.9431 4.014307 33.943327 -3.020363
2011-10-27 07:11:45 51°17.96 2°52.365 12.9689 4.017002 33.964951 -3.020363
2011-10-27 07:12:45 51°18.128 2°52.462 12.9624 4.019592 33.938453 -3.020363
2011-10-27 07:13:45 51°18.243 2°52.673 12.9535 4.022286 33.931968 -3.020363
2011-10-27 07:14:45 51°18.308 2°52.94 12.9126 4.025395 33.937735 -3.020363
2011-10-27 07:15:45 51°18.362 2°53.216 12.8978 4.028918 33.948157 -3.020363
2011-10-27 07:16:45 51°18.425 2°53.485 12.8822 4.032131 33.977617 -3.020363
2011-10-27 07:17:45 51°18.495 2°53.75 12.8526 4.035034 34.027691 -3.020363
2011-10-27 07:18:45 51°18.573 2°54.009 12.8167 4.037107 34.063178 -3.020363
2011-10-27 07:19:45 51°18.658 2°54.262 12.7899 4.038247 34.083816 -3.020363
2011-10-27 07:20:45 51°18.737 2°54.521 12.7528 4.038558 34.109616 -3.020363
2011-10-27 07:21:45 51°18.802 2°54.79 12.7367 4.038248 34.138756 -3.020363
2011-10-27 07:22:45 51°18.871 2°55.056 12.7289 4.037315 34.144479 -3.020363
2011-10-27 07:23:45 51°18.949 2°55.314 12.7008 4.036175 34.1628 -3.020363
2011-10-27 07:24:45 51°19.023 2°55.575 12.6798 4.034414 34.179111 -3.020363
2011-10-27 07:25:45 51°19.093 2°55.839 12.628 4.032134 34.165984 -3.020363
2011-10-27 07:26:45 51°19.172 2°56.095 12.57 4.030165 34.16654 -3.020363
2011-10-27 07:27:45 51°19.247 2°56.355 12.5023 4.027885 34.167996 -3.020363
2011-10-27 07:28:45 51°19.318 2°56.615 12.4229 4.02602 34.191083 -3.020363
2011-10-27 07:29:45 51°19.39 2°56.873 12.3444 4.023949 34.233883 -3.020363
2011-10-27 07:30:45 51°19.47 2°57.123 12.2798 4.021773 34.247993 -3.020363
2011-10-27 07:31:45 51°19.548 2°57.377 12.2256 4.018974 34.187415 -3.020363
2011-10-27 07:32:45 51°19.618 2°57.636 12.1954 4.016799 34.237065 -3.020363
2011-10-27 07:33:45 51°19.692 2°57.892 12.1811 4.012032 34.226551 -3.020363
2011-10-27 07:34:45 51°19.762 2°58.15 12.1755 4.005814 34.202978 -3.020363
2011-10-27 07:35:45 51°19.826 2°58.408 12.1544 3.997628 34.181545 -3.020363
2011-10-27 07:36:45 51°19.902 2°58.657 12.1411 3.983741 34.064541 -3.020363
2011-10-27 07:37:45 51°19.965 2°58.913 12.1307 3.96799 33.938974 -3.020363
2011-10-27 07:38:45 51°20.034 2°59.165 12.1442 3.954208 33.850607 -3.020363
2011-10-27 07:39:45 51°20.108 2°59.409 12.1815 3.942603 33.743648 -3.020363
2011-10-27 07:40:45 51°20.17 2°59.66 12.189 3.931826 33.666871 -3.020363
2011-10-27 07:41:45 51°20.233 2°59.91 12.2085 3.91991 33.558466 -3.020363
2011-10-27 07:42:45 51°20.303 3°0.156 12.2116 3.907995 33.446273 -3.020363
2011-10-27 07:43:45 51°20.357 3°0.413 12.2283 3.895458 33.341122 -3.020363
2011-10-27 07:44:45 51°20.417 3°0.666 12.2188 3.883438 33.206037 -3.020363
2011-10-27 07:45:45 51°20.482 3°0.914 12.2234 3.874632 33.11307 -3.020363
2011-10-27 07:46:45 51°20.547 3°1.164 12.2185 3.866136 33.040453 -3.020363
2011-10-27 07:47:45 51°20.61 3°1.418 12.2356 3.858055 32.960507 -3.020363
2011-10-27 07:48:45 51°20.678 3°1.671 12.2474 3.851113 32.898191 -3.020363
2011-10-27 07:49:45 51°20.735 3°1.93 12.2523 3.844897 32.819598 -3.020363
2011-10-27 07:50:45 51°20.799 3°2.186 12.2771 3.840131 32.783991 -3.020363
2011-10-27 07:51:45 51°20.869 3°2.442 12.3041 3.835573 32.739901 -3.020363
2011-10-27 07:52:45 51°20.935 3°2.702 12.3294 3.832569 32.711338 -3.020363
2011-10-27 07:53:45 51°21.007 3°2.957 12.3439 3.829978 32.651027 -3.020363
2011-10-27 07:54:45 51°21.064 3°3.222 12.3442 3.828113 32.639261 -3.020363
2011-10-27 07:55:45 51°21.122 3°3.486 12.3567 3.826456 32.613876 -3.020363
2011-10-27 07:56:45 51°21.193 3°3.741 12.3552 3.824798 32.57962 -3.020363
2011-10-27 07:57:45 51°21.261 3°3.996 12.3651 3.823555 32.55451 -3.020363
2011-10-27 07:58:45 51°21.321 3°4.255 12.3635 3.822104 32.532629 -3.020363
2011-10-27 07:59:45 51°21.391 3°4.505 12.3662 3.820965 32.518874 -3.020363
2011-10-27 08:00:45 51°21.454 3°4.76 12.3704 3.818996 32.488417 -3.020363
2011-10-27 08:01:45 51°21.516 3°5.017 12.3813 3.817753 32.458959 -3.020363
2011-10-27 08:02:45 51°21.583 3°5.269 12.3865 3.816095 32.456519 -3.020363
2011-10-27 08:03:45 51°21.643 3°5.523 12.3824 3.814645 32.434688 -3.020363
2011-10-27 08:04:45 51°21.71 3°5.774 12.3832 3.813194 32.420957 -3.020363
2011-10-27 08:05:45 51°21.778 3°6.022 12.3891 3.812573 32.401841 -3.020363
2011-10-27 08:06:45 51°21.837 3°6.279 12.4078 3.811433 32.385183 -3.020363
2011-10-27 08:07:45 51°21.902 3°6.534 12.4035 3.810708 32.387868 -3.020363
2011-10-27 08:08:45 51°21.97 3°6.791 12.4231 3.809983 32.378069 -3.020363
2011-10-27 08:09:45 51°22.025 3°7.057 12.4067 3.809361 32.372922 -3.020363
2011-10-27 08:10:45 51°22.071 3°7.33 12.4256 3.808532 32.352608 -3.020363
2011-10-27 08:11:45 51°22.122 3°7.602 12.4198 3.798588 32.262224 -3.020363
2011-10-27 08:12:45 51°22.179 3°7.874 12.4178 3.797966 32.235158 -3.020363
2011-10-27 08:13:45 51°22.227 3°8.154 12.42 3.796619 32.226813 -3.020363
2011-10-27 08:14:45 51°22.28 3°8.434 12.4223 3.796101 32.22703 -3.020363
2011-10-27 08:15:45 51°22.343 3°8.71 12.4305 3.794962 32.208233 -3.020363
2011-10-27 08:16:45 51°22.348 3°8.994 12.4324 3.793511 32.190886 -3.020363
2011-10-27 08:17:45 51°22.334 3°9.291 12.4299 3.792165 32.184726 -3.020363
2011-10-27 08:18:45 51°22.331 3°9.593 12.4393 3.790922 32.167152 -3.020363
2011-10-27 08:19:45 51°22.335 3°9.899 12.4247 3.789782 32.143286 -3.020363
2011-10-27 08:20:45 51°22.365 3°10.199 12.4416 3.788746 32.136416 -3.020363
2011-10-27 08:21:45 51°22.391 3°10.475 12.4153 3.786571 32.115151 -3.020363
2011-10-27 08:22:45 51°22.41 3°10.652 12.4077 3.785742 32.11678 -3.020363
2011-10-27 08:23:45 51°22.431 3°10.807 12.3782 3.786156 32.120693 -3.020363
2011-10-27 08:24:45 51°22.449 3°10.958 12.4035 3.785224 32.100258 -3.020363
2011-10-27 08:25:45 51°22.462 3°11.108 12.4088 3.784188 32.105016 -3.020363
2011-10-27 08:26:45 51°22.475 3°11.266 12.4204 3.781806 32.08906 -3.020363
2011-10-27 08:27:45 51°22.489 3°11.448 12.4223 3.78077 32.066928 -3.020363
2011-10-27 08:28:45 51°22.511 3°11.635 12.4347 3.779216 32.054438 -3.020363
2011-10-27 08:29:45 51°22.532 3°11.823 12.4127 3.777455 32.031286 -3.020363
2011-10-27 08:30:45 51°22.488 3°11.93 12.3964 3.775383 31.995799 -3.020363
2011-10-27 08:31:45 51°22.469 3°11.917 12.399 3.773104 31.984438 -3.020363
2011-10-27 08:32:45 51°22.46 3°11.886 12.3876 3.770515 31.960008 -3.020363
2011-10-27 08:33:45 51°22.453 3°11.854 12.3719 3.767821 31.941112 -3.020363
2011-10-27 08:34:45 51°22.448 3°11.825 12.3669 3.765232 31.931142 -3.020363
2011-10-27 08:35:45 51°22.444 3°11.797 12.3647 3.762435 31.911255 -3.020363
2011-10-27 08:36:45 51°22.441 3°11.772 12.363 3.760053 31.897444 -3.020363
2011-10-27 08:37:45 51°22.439 3°11.746 12.3683 3.757463 31.870111 -3.020363
2011-10-27 08:38:45 51°22.437 3°11.721 12.3679 3.754977 31.845928 -3.020363
2011-10-27 08:39:45 51°22.437 3°11.697 12.3896 3.753009 31.831685 -3.020363
2011-10-27 08:40:45 51°22.436 3°11.672 12.4037 3.751041 31.81744 -3.020363
2011-10-27 08:41:45 51°22.436 3°11.648 12.4024 3.749798 31.80571 -3.020363
2011-10-27 08:42:45 51°22.436 3°11.624 12.3995 3.748763 31.793773 -3.020363
2011-10-27 08:43:45 51°22.436 3°11.6 12.3833 3.747727 31.789043 -3.020363
2011-10-27 08:44:45 51°22.438 3°11.579 12.3738 3.746691 31.774946 -3.020363
2011-10-27 08:45:45 51°22.44 3°11.558 12.368 3.745862 31.7362 -3.020363
2011-10-27 08:46:45 51°22.444 3°11.541 12.376 3.745344 31.752885 -3.020363
2011-10-27 08:47:45 51°22.449 3°11.53 12.3753 3.74462 31.76404 -3.020363
2011-10-27 08:48:45 51°22.453 3°11.523 12.3761 3.742548 31.748809 -3.020363
2011-10-27 08:49:45 51°22.455 3°11.519 12.3876 3.741616 31.737133 -3.020363
2011-10-27 08:50:45 51°22.455 3°11.515 12.3843 3.740891 31.733169 -3.020363
2011-10-27 08:51:45 51°22.454 3°11.508 12.3879 3.738819 31.710744 -3.020363
2011-10-27 08:52:45 51°22.485 3°11.425 12.3951 3.738094 31.699591 -3.020363
2011-10-27 08:53:45 51°22.575 3°11.274 12.4348 3.737576 31.696142 -3.020363
2011-10-27 08:54:45 51°22.687 3°11.118 12.436 3.737058 31.694849 -3.020363
2011-10-27 08:55:45 51°22.798 3°10.951 12.4406 3.736333 31.683699 -3.020363
2011-10-27 08:56:45 51°22.916 3°10.797 12.4374 3.730532 31.605347 -3.020363
2011-10-27 08:57:45 51°23.03 3°10.641 12.4254 3.730532 31.599621 -3.020363
2011-10-27 08:58:45 51°23.139 3°10.477 12.4144 3.730429 31.591492 -3.020363
2011-10-27 08:59:45 51°23.247 3°10.324 12.4203 3.730429 31.591492 -3.020363
2011-10-27 09:00:45 51°23.318 3°10.224 12.419 3.730325 31.594808 -3.020363
2011-10-27 09:01:45 51°23.364 3°10.166 12.4168 3.730015 31.593311 -3.020363
2011-10-27 09:02:45 51°23.41 3°10.138 12.4126 3.729497 31.588432 -3.020363
2011-10-27 09:03:45 51°23.518 3°10.178 12.3923 3.730118 31.597864 -3.020363
2011-10-27 09:04:45 51°23.573 3°10.236 12.3809 3.729911 31.593051 -3.020363
2011-10-27 09:05:45 51°23.604 3°10.279 12.3779 3.730947 31.612116 -3.020363
2011-10-27 09:06:45 51°23.639 3°10.342 12.3754 3.730015 31.61049 -3.020363
2011-10-27 09:07:45 51°23.678 3°10.415 12.3739 3.732501 31.646115 -3.020363
2011-10-27 09:08:45 51°23.72 3°10.487 12.3703 3.73509 31.669102 -3.020363
2011-10-27 09:09:45 51°23.752 3°10.568 12.3654 3.736644 31.68663 -3.020363
2011-10-27 09:10:45 51°23.771 3°10.66 12.3618 3.73913 31.714395 -3.020363
2011-10-27 09:11:45 51°23.792 3°10.751 12.3562 3.741201 31.734662 -3.020363
2011-10-27 09:12:45 51°23.811 3°10.844 12.3503 3.742859 31.759664 -3.020363
2011-10-27 09:13:45 51°23.822 3°10.942 12.3402 3.744413 31.775053 -3.020363
2011-10-27 09:14:45 51°23.835 3°11.042 12.3494 3.746277 31.799869 -3.020363
2011-10-27 09:15:45 51°23.853 3°11.139 12.352 3.747624 31.823417 -3.020363
2011-10-27 09:16:45 51°23.878 3°11.233 12.3534 3.748867 31.830104 -3.020363
2011-10-27 09:17:45 51°23.903 3°11.328 12.3508 3.749799 31.83891 -3.020363
2011-10-27 09:18:45 51°23.928 3°11.423 12.3513 3.750835 31.847973 -3.020363
2011-10-27 09:19:45 51°23.951 3°11.52 12.3478 3.751974 31.856569 -3.020363
2011-10-27 09:20:45 51°23.973 3°11.618 12.351 3.753217 31.869035 -3.020363
2011-10-27 09:21:45 51°23.984 3°11.721 12.3506 3.754046 31.873248 -3.020363
2011-10-27 09:22:45 51°23.98 3°11.817 12.3499 3.754978 31.881331 -3.020363
2011-10-27 09:23:45 51°23.974 3°11.907 12.3549 3.755599 31.882139 -3.020363
2011-10-27 09:24:45 51°23.98 3°11.996 12.3558 3.756635 31.89916 -3.020363
2011-10-27 09:25:45 51°23.99 3°12.085 12.3602 3.756946 31.903544 -3.020363
2011-10-27 09:26:45 51°24 3°12.174 12.3563 3.756635 31.898436 -3.020363
2011-10-27 09:27:45 51°24.013 3°12.261 12.3552 3.756635 31.89916 -3.020363
2011-10-27 09:28:45 51°24.026 3°12.349 12.3566 3.756428 31.892861 -3.020363
2011-10-27 09:29:45 51°24.023 3°12.439 12.3526 3.756428 31.895032 -3.020363
2011-10-27 09:30:45 51°24.011 3°12.525 12.3455 3.756117 31.884138 -3.020363
2011-10-27 09:31:45 51°23.988 3°12.608 12.3464 3.755703 31.887458 -3.020363
2011-10-27 09:32:45 51°23.953 3°12.693 12.3571 3.755082 31.881586 -3.020363
2011-10-27 09:33:45 51°23.908 3°12.757 12.3691 3.754667 31.887078 -3.020363
2011-10-27 09:34:45 51°23.86 3°12.789 12.377 3.753942 31.875162 -3.020363
2011-10-27 09:35:45 51°23.824 3°12.796 12.3824 3.753424 31.861593 -3.020363
2011-10-27 09:36:45 51°23.797 3°12.792 12.3786 3.753735 31.865251 -3.020363
2011-10-27 09:37:45 51°23.778 3°12.784 12.3788 3.753631 31.852711 -3.020363
2011-10-27 09:38:45 51°23.764 3°12.774 12.3806 3.753113 31.839157 -3.020363
2011-10-27 09:39:45 51°23.748 3°12.765 12.3797 3.752595 31.839321 -3.020363
2011-10-27 09:40:45 51°23.703 3°12.731 12.384 3.751767 31.82789 -3.020363
2011-10-27 09:41:45 51°23.714 3°12.628 12.3944 3.75187 31.831033 -3.020363
2011-10-27 09:42:45 51°23.79 3°12.652 12.3895 3.75187 31.812281 -3.020363
2011-10-27 09:43:45 51°23.928 3°12.775 12.3773 3.750524 31.816158 -3.020363
2011-10-27 09:44:45 51°24.027 3°12.9 12.3625 3.750006 31.811991 -3.020363
2011-10-27 09:45:45 51°24.066 3°12.989 12.3608 3.749177 31.80417 -3.020363
2011-10-27 09:46:45 51°24.084 3°13.048 12.3546 3.74897 31.808705 -3.020363
2011-10-27 09:47:45 51°24.097 3°13.09 12.3497 3.748141 31.809539 -3.020363
2011-10-27 09:48:45 51°24.109 3°13.128 12.342 3.747416 31.809186 -3.020363
2011-10-27 09:49:45 51°24.122 3°13.173 12.3426 3.746899 31.809347 -3.020363
2011-10-27 09:50:45 51°24.136 3°13.225 12.3389 3.74607 31.808739 -3.020363
2011-10-27 09:51:45 51°24.147 3°13.281 12.3365 3.745138 31.799932 -3.020363
2011-10-27 09:52:45 51°24.153 3°13.342 12.33 3.744516 31.794783 -3.020363
2011-10-27 09:53:45 51°24.157 3°13.404 12.3331 3.743481 31.793658 -3.020363
2011-10-27 09:54:45 51°24.161 3°13.464 12.334 3.743481 31.792215 -3.020363
2011-10-27 09:55:45 51°24.166 3°13.525 12.3326 3.744206 31.802676 -3.020363
2011-10-27 09:56:45 51°24.169 3°13.588 12.338 3.744931 31.808083 -3.020363
2011-10-27 09:57:45 51°24.173 3°13.651 12.3455 3.745552 31.811067 -3.020363
2011-10-27 09:58:45 51°24.177 3°13.758 12.3502 3.746174 31.805386 -3.020363
2011-10-27 09:59:45 51°24.187 3°13.952 12.345 3.746692 31.818221 -3.020363
2011-10-27 10:00:45 51°24.197 3°14.173 12.3647 3.747313 31.821926 -3.020363
2011-10-27 10:01:45 51°24.202 3°14.397 12.3788 3.747727 31.823674 -3.020363
2011-10-27 10:02:45 51°24.218 3°14.596 12.3812 3.747209 31.815892 -3.020363
2011-10-27 10:03:45 51°24.266 3°14.78 12.3714 3.747106 31.789664 -3.020363
2011-10-27 10:04:45 51°24.343 3°15.052 12.3699 3.743169 31.745317 -3.020363
2011-10-27 10:05:45 51°24.504 3°15.241 12.3641 3.741098 31.730807 -3.020363
2011-10-27 10:06:45 51°24.708 3°15.261 12.3273 3.736437 31.69186 -3.020363
2011-10-27 10:07:45 51°24.891 3°15.145 12.3018 3.738198 31.711352 -3.020363
2011-10-27 10:08:45 51°25.035 3°14.94 12.2912 3.736541 31.711535 -3.020363
2011-10-27 10:09:45 51°25.1 3°14.657 12.3001 3.734055 31.704613 -3.020363
2011-10-27 10:10:45 51°25.095 3°14.346 12.3044 3.732812 31.713036 -3.020363
2011-10-27 10:11:45 51°25.091 3°14.033 12.3057 3.73333 31.72586 -3.020363
2011-10-27 10:12:45 51°25.077 3°13.721 12.307 3.737474 31.767196 -3.020363
2011-10-27 10:13:45 51°25.093 3°13.412 12.3098 3.740995 31.796162 -3.020363
2011-10-27 10:14:45 51°25.117 3°13.102 12.3183 3.747003 31.850081 -3.020363
2011-10-27 10:15:45 51°25.122 3°12.79 12.3258 3.750732 31.877381 -3.020363
2011-10-27 10:16:45 51°25.106 3°12.477 12.3321 3.753736 31.908688 -3.020363
2011-10-27 10:17:45 51°25.1 3°12.166 12.3401 3.755911 31.926362 -3.020363
2011-10-27 10:18:45 51°25.082 3°11.856 12.3465 3.755911 31.923461 -3.020363
2011-10-27 10:19:45 51°25.083 3°11.547 12.3476 3.760468 31.960035 -3.020363
2011-10-27 10:20:45 51°25.09 3°11.24 12.327 3.761504 31.967653 -3.020363
2011-10-27 10:21:45 51°25.057 3°10.932 12.2722 3.763576 31.982888 -3.020363
2011-10-27 10:22:45 51°25.02 3°10.625 12.2437 3.766165 32.008833 -3.020363
2011-10-27 10:23:45 51°24.994 3°10.317 12.2171 3.766683 32.03119 -3.020363
2011-10-27 10:24:45 51°24.966 3°10.011 12.198 3.767823 32.063832 -3.020363
2011-10-27 10:25:45 51°24.913 3°9.711 12.1989 3.768963 32.07973 -3.020363
2011-10-27 10:26:45 51°24.861 3°9.408 12.1923 3.767823 32.061645 -3.020363
2011-10-27 10:27:45 51°24.801 3°9.108 12.1897 3.767617 32.118119 -3.020363
2011-10-27 10:28:45 51°24.752 3°8.803 12.1889 3.768653 32.118432 -3.020363
2011-10-27 10:29:45 51°24.727 3°8.494 12.1694 3.768446 32.130374 -3.020363
2011-10-27 10:30:45 51°24.714 3°8.184 12.1463 3.766685 32.12538 -3.020363
2011-10-27 10:31:45 51°24.712 3°7.874 12.1181 3.765442 32.104066 -3.020363
2011-10-27 10:32:45 51°24.725 3°7.565 12.11 3.764509 32.096683 -3.020363
2011-10-27 10:33:45 51°24.752 3°7.261 12.1047 3.763163 32.092685 -3.020363
2011-10-27 10:34:45 51°24.783 3°6.959 12.1136 3.761299 32.094748 -3.020363
2011-10-27 10:35:45 51°24.834 3°6.666 12.1295 3.759641 32.081939 -3.020363
2011-10-27 10:36:45 51°24.883 3°6.372 12.1322 3.755706 32.072376 -3.020363
2011-10-27 10:37:45 51°24.912 3°6.07 12.1349 3.754774 32.069377 -3.020363
2011-10-27 10:38:45 51°24.955 3°5.774 12.1295 3.741515 31.938293 -3.020363
2011-10-27 10:39:45 51°25.006 3°5.48 12.1336 3.739029 31.916872 -3.020363
2011-10-27 10:40:45 51°25.077 3°5.201 12.143 3.738822 31.911989 -3.020363
2011-10-27 10:41:45 51°25.198 3°4.973 12.1537 3.738304 31.906342 -3.020363
2011-10-27 10:42:45 51°25.348 3°4.791 12.1664 3.737268 31.894321 -3.020363
2011-10-27 10:43:45 51°25.527 3°4.691 12.1786 3.735922 31.877169 -3.020363
2011-10-27 10:44:45 51°25.712 3°4.613 12.1943 3.734575 31.861477 -3.020363
2011-10-27 10:45:45 51°25.898 3°4.534 12.2139 3.734057 31.852199 -3.020363
2011-10-27 10:46:45 51°26.082 3°4.442 12.2275 3.733021 31.835103 -3.020363
2011-10-27 10:47:45 51°26.264 3°4.344 12.2457 3.734057 31.830402 -3.020363
2011-10-27 10:48:45 51°26.448 3°4.258 12.2731 3.732399 31.798731 -3.020363
2011-10-27 10:49:45 51°26.628 3°4.152 12.3164 3.734264 31.801903 -3.020363
2011-10-27 10:50:45 51°26.813 3°4.073 12.3616 3.732917 31.781182 -3.020363
2011-10-27 10:51:45 51°26.992 3°3.972 12.4159 3.733952 31.763502 -3.020363
2011-10-27 10:52:45 51°27.178 3°3.89 12.4606 3.734988 31.748743 -3.020363
2011-10-27 10:53:45 51°27.361 3°3.79 12.5041 3.736748 31.72861 -3.020363
2011-10-27 10:54:45 51°27.544 3°3.687 12.5413 3.740373 31.734039 -3.020363
2011-10-27 10:55:45 51°27.733 3°3.606 12.5733 3.745344 31.732755 -3.020363
2011-10-27 10:56:45 51°27.918 3°3.537 12.6096 3.747726 31.730787 -3.020363
2011-10-27 10:57:45 51°28.039 3°3.488 12.6354 3.751662 31.736998 -3.020363
2011-10-27 10:58:45 51°28.143 3°3.448 12.6548 3.755494 31.744382 -3.020363
2011-10-27 10:59:45 51°28.245 3°3.443 12.6809 3.76119 31.764987 -3.020363
2011-10-27 11:00:45 51°28.312 3°3.488 12.6923 3.765955 31.786835 -3.020363
2011-10-27 11:01:45 51°28.418 3°3.564 12.6987 3.771963 31.824629 -3.020363
2011-10-27 11:02:45 51°28.482 3°3.628 12.6933 3.779835 31.874159 -3.020363
2011-10-27 11:03:45 51°28.524 3°3.693 12.6909 3.786672 31.929711 -3.020363
2011-10-27 11:04:45 51°28.568 3°3.768 12.6902 3.792162 31.966865 -3.020363
2011-10-27 11:05:45 51°28.615 3°3.852 12.6876 3.796823 32.010607 -3.020363
2011-10-27 11:06:45 51°28.663 3°3.937 12.6852 3.800759 32.041791 -3.020363
2011-10-27 11:07:45 51°28.71 3°4.017 12.6854 3.802935 32.062927 -3.020363
2011-10-27 11:08:45 51°28.754 3°4.102 12.6855 3.805318 32.086011 -3.020363
2011-10-27 11:09:45 51°28.796 3°4.193 12.6864 3.806664 32.100817 -3.020363
2011-10-27 11:10:45 51°28.837 3°4.285 12.6852 3.808736 32.118824 -3.020363
2011-10-27 11:11:45 51°28.877 3°4.377 12.6859 3.809669 32.129744 -3.020363
2011-10-27 11:12:45 51°28.921 3°4.466 12.6852 3.810808 32.138999 -3.020363
2011-10-27 11:13:45 51°28.965 3°4.554 12.6856 3.811326 32.142417 -3.020363
2011-10-27 11:14:45 51°29.012 3°4.638 12.6841 3.811948 32.149698 -3.020363
2011-10-27 11:15:45 51°29.06 3°4.725 12.6841 3.813398 32.163317 -3.020363
2011-10-27 11:16:45 51°29.108 3°4.813 12.6848 3.813709 32.163343 -3.020363
2011-10-27 11:17:45 51°29.154 3°4.901 12.6832 3.813709 32.16262 -3.020363
2011-10-27 11:18:45 51°29.2 3°4.992 12.6814 3.81433 32.16412 -3.020363
2011-10-27 11:19:45 51°29.246 3°5.084 12.6806 3.814227 32.166761 -3.020363
2011-10-27 11:20:45 51°29.293 3°5.175 12.6785 3.814745 32.17307 -3.020363
2011-10-27 11:21:45 51°29.343 3°5.265 12.6763 3.814745 32.172347 -3.020363
2011-10-27 11:22:45 51°29.392 3°5.355 12.6748 3.814848 32.170428 -3.020363
2011-10-27 11:23:45 51°29.442 3°5.445 12.674 3.814641 32.173544 -3.020363
2011-10-27 11:24:45 51°29.491 3°5.536 12.6729 3.814848 32.179106 -3.020363
2011-10-27 11:25:45 51°29.538 3°5.628 12.6715 3.814434 32.167261 -3.020363
2011-10-27 11:26:45 51°29.584 3°5.724 12.6685 3.814745 32.177409 -3.020363
2011-10-27 11:27:45 51°29.633 3°5.817 12.6664 3.814745 32.181026 -3.020363
2011-10-27 11:28:45 51°29.681 3°5.911 12.6656 3.814641 32.180777 -3.020363
2011-10-27 11:29:45 51°29.717 3°6.016 12.6633 3.814538 32.181251 -3.020363
2011-10-27 11:30:45 51°29.743 3°6.125 12.6637 3.813709 32.167681 -3.020363
2011-10-27 11:31:45 51°29.76 3°6.239 12.663 3.812155 32.162487 -3.020363
2011-10-27 11:32:45 51°29.768 3°6.356 12.6627 3.811844 32.160291 -3.020363
2011-10-27 11:33:45 51°29.766 3°6.472 12.662 3.811637 32.152561 -3.020363
2011-10-27 11:34:44 51°29.753 3°6.582 12.6613 3.810808 32.151284 -3.020363
2011-10-27 11:35:45 51°29.725 3°6.668 12.6606 3.81029 32.147141 -3.020363
2011-10-27 11:36:45 51°29.691 3°6.702 12.6624 3.809669 32.142749 -3.020363
2011-10-27 11:37:45 51°29.662 3°6.727 12.6631 3.808115 32.131044 -3.020363
2011-10-27 11:38:45 51°29.603 3°6.736 12.6652 3.808736 32.136882 -3.020363
2011-10-27 11:39:45 51°29.553 3°6.738 12.6674 3.808322 32.130099 -3.020363
2011-10-27 11:40:45 51°29.528 3°6.753 12.6692 3.808115 32.131766 -3.020363
2011-10-27 11:41:45 51°29.516 3°6.775 12.6707 3.808529 32.134936 -3.020363
2011-10-27 11:42:45 51°29.512 3°6.8 12.6707 3.807804 32.130292 -3.020363
2011-10-27 11:43:45 51°29.495 3°6.791 12.6705 3.810808 32.153453 -3.020363
2011-10-27 11:44:45 51°29.42 3°6.625 12.6812 3.807286 32.122537 -3.020363
2011-10-27 11:45:44 51°29.314 3°6.413 12.6863 3.806561 32.112115 -3.020363
2011-10-27 11:46:45 51°29.217 3°6.177 12.6941 3.806665 32.113088 -3.020363
2011-10-27 11:47:45 51°29.135 3°5.936 12.6966 3.806043 32.099311 -3.020363
2011-10-27 11:48:45 51°29.042 3°5.705 12.6972 3.806457 32.099594 -3.020363
2011-10-27 11:49:45 51°28.947 3°5.475 12.6993 3.806353 32.094293 -3.020363
2011-10-27 11:50:45 51°28.865 3°5.233 12.7037 3.806043 32.088491 -3.020363
2011-10-27 11:51:45 51°28.777 3°4.995 12.7091 3.80625 32.088273 -3.020363
2011-10-27 11:52:45 51°28.695 3°4.753 12.7164 3.805732 32.079808 -3.020363
2011-10-27 11:53:45 51°28.602 3°4.52 12.7216 3.80625 32.081785 -3.020363
2011-10-27 11:54:45 51°28.521 3°4.275 12.7283 3.805525 32.070658 -3.020363
2011-10-27 11:55:45 51°28.436 3°4.033 12.7303 3.80366 32.052446 -3.020363
2011-10-27 11:56:45 51°28.341 3°3.806 12.7367 3.805214 32.059822 -3.020363
2011-10-27 11:57:45 51°28.254 3°3.567 12.7452 3.80366 32.040932 -3.020363
2011-10-27 11:58:45 51°28.227 3°3.365 12.7588 3.807285 32.073494 -3.020363
2011-10-27 11:59:44 51°28.261 3°3.314 12.7596 3.809772 32.091768 -3.020363
2011-10-27 12:00:45 51°28.293 3°3.333 12.7614 3.810393 32.092555 -3.020363
2011-10-27 12:01:45 51°28.319 3°3.366 12.7611 3.811843 32.097511 -3.020363
2011-10-27 12:02:45 51°28.345 3°3.403 12.757 3.814329 32.113615 -3.020363
2011-10-27 12:03:45 51°28.363 3°3.441 12.7604 3.81578 32.125768 -3.020363
2011-10-27 12:04:48 51°28.351 3°3.483 12.7626 3.817852 32.143748 -3.020363
2011-10-27 12:05:48 51°28.365 3°3.52 12.7631 3.817748 32.140614 -3.020363
2011-10-27 12:06:45 51°28.38 3°3.561 12.7639 3.819613 32.15593 -3.020363
2011-10-27 12:07:45 51°28.399 3°3.599 12.7614 3.820856 32.164698 -3.020363
2011-10-27 12:08:45 51°28.419 3°3.636 12.7648 3.820856 32.164698 -3.020363
2011-10-27 12:09:45 51°28.44 3°3.672 12.7644 3.821788 32.174879 -3.020363
2011-10-27 12:10:45 51°28.461 3°3.708 12.7684 3.822824 32.186034 -3.020363
2011-10-27 12:11:45 51°28.482 3°3.744 12.7851 3.823446 32.191139 -3.020363
2011-10-27 12:12:45 51°28.503 3°3.78 12.8051 3.823964 32.193829 -3.020363
2011-10-27 12:13:45 51°28.523 3°3.814 12.8044 3.824378 32.192661 -3.020363
2011-10-27 12:14:45 51°28.543 3°3.849 12.8034 3.824792 32.192215 -3.020363
2011-10-27 12:15:45 51°28.564 3°3.882 12.8064 3.82531 32.193461 -3.020363
2011-10-27 12:16:45 51°28.585 3°3.917 12.7957 3.825517 32.185305 -3.020363
2011-10-27 12:17:45 51°28.598 3°3.925 12.7727 3.825517 32.188189 -3.020363
2011-10-27 12:18:45 51°28.642 3°3.899 12.7618 3.827278 32.199639 -3.020363
2011-10-27 12:19:45 51°28.719 3°3.957 12.7579 3.828729 32.221167 -3.020363
2011-10-27 12:20:45 51°28.771 3°4.038 12.7442 3.829143 32.230105 -3.020363
2011-10-27 12:21:45 51°28.812 3°4.115 12.7398 3.829558 32.239047 -3.020363
2011-10-27 12:22:45 51°28.843 3°4.193 12.7416 3.828418 32.237037 -3.020363
2011-10-27 12:23:45 51°28.87 3°4.272 12.7383 3.82904 32.247204 -3.020363
2011-10-27 12:24:45 51°28.892 3°4.352 12.7409 3.828729 32.229833 -3.020363
2011-10-27 12:25:45 51°28.912 3°4.431 12.7363 3.828418 32.230533 -3.020363
2011-10-27 12:26:45 51°28.93 3°4.511 12.7398 3.828211 32.231481 -3.020363
2011-10-27 12:27:45 51°28.947 3°4.59 12.7378 3.827486 32.239862 -3.020363
2011-10-27 12:28:45 51°28.962 3°4.669 12.7386 3.827072 32.234529 -3.020363
2011-10-27 12:29:45 51°28.976 3°4.747 12.743 3.826761 32.232337 -3.020363
2011-10-27 12:30:45 51°28.987 3°4.823 12.7404 3.825932 32.227456 -3.020363
2011-10-27 12:31:45 51°28.976 3°4.884 12.7372 3.826036 32.223368 -3.020363
2011-10-27 12:32:45 51°28.958 3°4.864 12.7429 3.825932 32.229626 -3.020363
2011-10-27 12:33:45 51°28.93 3°4.725 12.752 3.824793 32.21966 -3.020363
2011-10-27 12:34:45 51°28.876 3°4.477 12.7615 3.824275 32.216247 -3.020363
2011-10-27 12:35:45 51°28.825 3°4.213 12.7722 3.825932 32.228903 -3.020363
2011-10-27 12:36:45 51°28.769 3°3.951 12.7842 3.824689 32.212906 -3.020363
2011-10-27 12:37:45 51°28.706 3°3.695 12.7963 3.824274 32.198908 -3.020363
2011-10-27 12:38:45 51°28.649 3°3.438 12.7917 3.822202 32.173714 -3.020363
2011-10-27 12:39:45 51°28.59 3°3.183 12.7892 3.823963 32.18012 -3.020363
2011-10-27 12:40:45 51°28.532 3°2.927 12.7915 3.821581 32.152752 -3.020363
2011-10-27 12:41:45 51°28.472 3°2.672 12.7982 3.824896 32.180924 -3.020363
2011-10-27 12:42:45 51°28.41 3°2.416 12.8187 3.82676 32.197672 -3.020363
2011-10-27 12:43:45 51°28.357 3°2.156 12.8318 3.824792 32.176349 -3.020363
2011-10-27 12:44:45 51°28.302 3°1.895 12.8385 3.827382 32.19484 -3.020363
2011-10-27 12:45:45 51°28.248 3°1.629 12.8347 3.827589 32.18813 -3.020363
2011-10-27 12:46:45 51°28.206 3°1.353 12.8284 3.829039 32.198106 -3.020363
2011-10-27 12:47:45 51°28.159 3°1.08 12.8209 3.828107 32.185053 -3.020363
2011-10-27 12:48:45 51°28.102 3°0.806 12.8207 3.829246 32.192839 -3.020363
2011-10-27 12:49:45 51°28.047 3°0.531 12.8296 3.829972 32.20107 -3.020363
2011-10-27 12:50:45 51°27.99 3°0.259 12.8467 3.829868 32.202262 -3.020363
2011-10-27 12:51:45 51°27.938 2°59.983 12.8713 3.830697 32.207859 -3.020363
2011-10-27 12:52:45 51°27.871 2°59.72 12.9047 3.831215 32.208383 -3.020363
2011-10-27 12:53:45 51°27.803 2°59.454 12.9441 3.832976 32.212615 -3.020363
2011-10-27 12:54:45 51°27.736 2°59.189 13.0028 3.832665 32.196023 -3.020363
2011-10-27 12:55:45 51°27.664 2°58.927 13.0683 3.836601 32.202612 -3.020363
2011-10-27 12:56:45 51°27.603 2°58.656 13.183 3.83774 32.184512 -3.020363
2011-10-27 12:57:45 51°27.543 2°58.388 13.3088 3.840951 32.174309 -3.020363
2011-10-27 12:58:45 51°27.474 2°58.126 13.4046 3.845198 32.168786 -3.020363
2011-10-27 12:59:45 51°27.411 2°57.86 13.4716 3.846129 32.08685 -3.020363
2011-10-27 13:00:45 51°27.348 2°57.594 13.524 3.852551 32.07401 -3.020363
2011-10-27 13:01:45 51°27.283 2°57.335 13.5582 3.856384 32.04225 -3.020363
2011-10-27 13:02:45 51°27.215 2°57.074 13.5716 3.863014 32.049885 -3.020363
2011-10-27 13:03:45 51°27.151 2°56.815 13.5765 3.867468 32.03393 -3.020363
2011-10-27 13:04:45 51°27.088 2°56.559 13.5782 3.872959 32.098696 -3.020363
2011-10-27 13:05:45 51°27.021 2°56.303 13.5839 3.878657 32.09205 -3.020363
2011-10-27 13:06:45 51°26.959 2°56.04 13.5971 3.885184 32.126842 -3.020363
2011-10-27 13:07:45 51°26.892 2°55.779 13.6234 3.891193 32.187845 -3.020363
2011-10-27 13:08:45 51°26.822 2°55.523 13.6501 3.895337 32.213327 -3.020363
2011-10-27 13:09:45 51°26.762 2°55.262 13.6648 3.902279 32.255381 -3.020363
2011-10-27 13:10:45 51°26.706 2°55.006 13.6811 3.907667 32.286623 -3.020363
2011-10-27 13:11:45 51°26.644 2°54.753 13.7082 3.9115 32.300008 -3.020363
2011-10-27 13:12:45 51°26.575 2°54.508 13.734 3.915126 32.31642 -3.020363
2011-10-27 13:13:45 51°26.516 2°54.256 13.7545 3.919996 32.346371 -3.020363
2011-10-27 13:14:45 51°26.454 2°54.002 13.7885 3.925177 32.379163 -3.020363
2011-10-27 13:15:45 51°26.388 2°53.747 13.8238 3.926109 32.36654 -3.020363
2011-10-27 13:16:45 51°26.312 2°53.5 13.8432 3.930771 32.383951 -3.020363
2011-10-27 13:17:45 51°26.25 2°53.238 13.8687 3.930046 32.360366 -3.020363
2011-10-27 13:18:45 51°26.177 2°52.984 13.8849 3.934087 32.395334 -3.020363
2011-10-27 13:19:45 51°26.103 2°52.732 13.8963 3.934708 32.372136 -3.020363
2011-10-27 13:20:45 51°26.039 2°52.471 13.9057 3.938231 32.383305 -3.020363
2011-10-27 13:21:45 51°25.97 2°52.214 13.9143 3.942583 32.401356 -3.020363
2011-10-27 13:22:45 51°25.901 2°51.959 13.9169 3.943826 32.397966 -3.020363
2011-10-27 13:23:45 51°25.826 2°51.707 13.92 3.944655 32.395709 -3.020363
2011-10-27 13:24:45 51°25.759 2°51.452 13.9249 3.947971 32.42184 -3.020363
2011-10-27 13:25:45 51°25.696 2°51.193 13.9298 3.950768 32.443226 -3.020363
2011-10-27 13:26:45 51°25.635 2°50.933 13.9377 3.951804 32.440041 -3.020363
2011-10-27 13:27:45 51°25.56 2°50.681 13.9479 3.953981 32.457137 -3.020363
2011-10-27 13:28:45 51°25.499 2°50.419 13.9593 3.955431 32.469003 -3.020363
2011-10-27 13:29:45 51°25.438 2°50.156 13.9714 3.952219 32.424847 -3.020363
2011-10-27 13:30:45 51°25.379 2°49.89 13.9853 3.958436 32.480301 -3.020363
2011-10-27 13:31:45 51°25.325 2°49.621 14.0128 3.95854 32.474211 -3.020363
2011-10-27 13:32:45 51°25.27 2°49.353 14.0411 3.957814 32.449298 -3.020363
2011-10-27 13:33:45 51°25.207 2°49.095 14.0822 3.961026 32.465301 -3.020363
2011-10-27 13:34:45 51°25.154 2°48.83 14.11 3.960922 32.453117 -3.020363
2011-10-27 13:35:45 51°25.089 2°48.569 14.1438 3.96144 32.44311 -3.020363
2011-10-27 13:36:45 51°25.036 2°48.303 14.1764 3.960714 32.397262 -3.020363
2011-10-27 13:37:45 51°24.987 2°48.056 14.2052 3.963927 32.421653 -3.020363
2011-10-27 13:38:45 51°24.959 2°47.976 14.2124 3.965067 32.445355 -3.020363
2011-10-27 13:39:45 51°24.968 2°47.991 14.2154 3.967034 32.388476 -3.020363
2011-10-27 13:40:45 51°24.99 2°48.021 14.2149 3.969625 32.407866 -3.020363
2011-10-27 13:41:45 51°25.013 2°48.05 14.2167 3.972216 32.432142 -3.020363
2011-10-27 13:42:45 51°25.035 2°48.075 14.2187 3.974392 32.435882 -3.020363
2011-10-27 13:43:45 51°25.058 2°48.099 14.2214 3.976671 32.427309 -3.020363
2011-10-27 13:44:45 51°25.081 2°48.121 14.216 3.978433 32.443324 -3.020363
2011-10-27 13:45:45 51°25.103 2°48.144 14.2185 3.980194 32.451665 -3.020363
2011-10-27 13:46:45 51°25.125 2°48.167 14.2192 3.982267 32.473995 -3.020363
2011-10-27 13:47:45 51°25.148 2°48.191 14.2199 3.98351 32.479714 -3.020363
2011-10-27 13:48:45 51°25.17 2°48.216 14.2206 3.984443 32.486796 -3.020363
2011-10-27 13:49:45 51°25.192 2°48.241 14.2215 3.984858 32.485676 -3.020363
2011-10-27 13:50:45 51°25.215 2°48.267 14.2198 3.985894 32.491603 -3.020363
2011-10-27 13:51:45 51°25.238 2°48.293 14.2199 3.986412 32.499106 -3.020363
2011-10-27 13:52:45 51°25.261 2°48.319 14.2239 3.986412 32.497011 -3.020363
2011-10-27 13:53:45 51°25.284 2°48.346 14.226 3.986412 32.497011 -3.020363
2011-10-27 13:54:45 51°25.306 2°48.374 14.2268 3.987759 32.507858 -3.020363
2011-10-27 13:55:45 51°25.329 2°48.401 14.2302 3.987966 32.509044 -3.020363
2011-10-27 13:56:45 51°25.351 2°48.427 14.2233 3.988795 32.514483 -3.020363
2011-10-27 13:57:45 51°25.359 2°48.425 14.2221 3.987345 32.501297 -3.020363
2011-10-27 13:58:45 51°25.285 2°48.291 14.2257 3.987241 32.498261 -3.020363
2011-10-27 13:59:45 51°25.221 2°48.312 14.2258 3.986101 32.489298 -3.020363
2011-10-27 14:00:45 51°25.147 2°48.439 14.2267 3.986205 32.490938 -3.020363
2011-10-27 14:01:45 51°25.082 2°48.516 14.2044 3.987655 32.506218 -3.020363
2011-10-27 14:02:45 51°25.041 2°48.513 14.1824 3.988174 32.506736 -3.020363
2011-10-27 14:03:45 51°25.004 2°48.455 14.1663 3.987137 32.505001 -3.020363
2011-10-27 14:04:44 51°24.974 2°48.378 14.1632 3.987241 32.508738 -3.020363
2011-10-27 14:05:45 51°24.945 2°48.31 14.1642 3.987656 32.533485 -3.020363
2011-10-27 14:06:45 51°24.918 2°48.245 14.168 3.987552 32.533942 -3.020363
2011-10-27 14:07:45 51°24.903 2°48.174 14.1819 3.986931 32.535985 -3.020363
2011-10-27 14:08:45 51°24.895 2°48.101 14.1964 3.986309 32.529628 -3.020363
2011-10-27 14:09:45 51°24.885 2°48.029 14.2033 3.985687 32.52467 -3.020363
2011-10-27 14:10:45 51°24.87 2°47.944 14.2176 3.984962 32.515272 -3.020363
2011-10-27 14:11:45 51°24.849 2°47.854 14.2234 3.984858 32.50384 -3.020363
2011-10-27 14:12:45 51°24.83 2°47.77 14.2278 3.984858 32.496851 -3.020363
2011-10-27 14:13:45 51°24.812 2°47.69 14.2373 3.985168 32.494089 -3.020363
2011-10-27 14:14:45 51°24.795 2°47.61 14.2413 3.984961 32.488014 -3.020363
2011-10-27 14:15:45 51°24.779 2°47.527 14.2444 3.985376 32.487592 -3.020363
2011-10-27 14:16:45 51°24.763 2°47.444 14.2519 3.98579 32.483681 -3.020363
2011-10-27 14:17:45 51°24.771 2°47.35 14.2559 3.986515 32.491669 -3.020363
2011-10-27 14:18:45 51°24.815 2°47.26 14.2623 3.986826 32.488212 -3.020363
2011-10-27 14:19:45 51°24.875 2°47.194 14.2616 3.98807 32.488344 -3.020363
2011-10-27 14:20:45 51°24.94 2°47.149 14.256 3.987759 32.479942 -3.020363
2011-10-27 14:21:45 51°25.012 2°47.136 14.2469 3.988588 32.482589 -3.020363
2011-10-27 14:22:45 51°25.088 2°47.156 14.2436 3.988899 32.490293 -3.020363
2011-10-27 14:23:45 51°25.16 2°47.207 14.2457 3.988484 32.481648 -3.020363
2011-10-27 14:24:45 51°25.224 2°47.282 14.2494 3.990039 32.502041 -3.020363
2011-10-27 14:25:45 51°25.277 2°47.374 14.2528 3.989935 32.503892 -3.020363
2011-10-27 14:26:45 51°25.316 2°47.479 14.2476 3.990453 32.504411 -3.020363
2011-10-27 14:27:45 51°25.341 2°47.587 14.2446 3.990868 32.505384 -3.020363
2011-10-27 14:28:45 51°25.354 2°47.696 14.2399 3.989313 32.49057 -3.020363
2011-10-27 14:29:45 51°25.353 2°47.802 14.237 3.989831 32.491091 -3.020363
2011-10-27 14:30:45 51°25.352 2°47.887 14.2384 3.98952 32.49594 -3.020363
2011-10-27 14:31:45 51°25.355 2°47.949 14.2406 3.989624 32.498974 -3.020363
2011-10-27 14:32:45 51°25.331 2°48.04 14.2443 3.991075 32.51634 -3.020363
2011-10-27 14:33:45 51°25.26 2°48.09 14.2544 3.989935 32.507381 -3.020363
2011-10-27 14:34:45 51°25.231 2°48.101 14.2549 3.990246 32.508809 -3.020363
2011-10-27 14:35:45 51°25.219 2°48.109 14.2535 3.990142 32.502983 -3.020363
2011-10-27 14:36:45 51°25.21 2°48.138 14.2523 3.98952 32.491058 -3.020363
2011-10-27 14:37:45 51°25.208 2°48.192 14.2498 3.989313 32.489873 -3.020363
2011-10-27 14:38:45 51°25.199 2°48.248 14.2447 3.989417 32.492209 -3.020363
2011-10-27 14:39:45 51°25.182 2°48.292 14.2367 3.990039 32.497158 -3.020363
2011-10-27 14:40:45 51°25.16 2°48.337 14.2284 3.989313 32.49057 -3.020363
2011-10-27 14:41:45 51°25.142 2°48.393 14.2136 3.989728 32.497822 -3.020363
2011-10-27 14:42:45 51°25.129 2°48.447 14.1981 3.99035 32.506959 -3.020363
2011-10-27 14:43:45 51°25.115 2°48.488 14.1809 3.990453 32.514183 -3.020363
2011-10-27 14:44:44 51°25.101 2°48.523 14.1644 3.989521 32.514089 -3.020363
2011-10-27 14:45:45 51°25.089 2°48.564 14.1486 3.989417 32.523628 -3.020363
2011-10-27 14:46:45 51°25.075 2°48.604 14.1384 3.98807 32.523964 -3.020363
2011-10-27 14:47:44 51°25.059 2°48.635 14.1149 3.988796 32.539655 -3.020363
2011-10-27 14:48:45 51°24.963 2°48.681 14.0964 3.984443 32.512657 -3.020363
2011-10-27 14:49:44 51°24.79 2°48.771 14.0883 3.98434 32.525011 -3.020363
2011-10-27 14:50:44 51°24.606 2°48.859 14.101 3.981646 32.51589 -3.020363
2011-10-27 14:51:44 51°24.421 2°48.929 14.1097 3.980402 32.510169 -3.020363
2011-10-27 14:52:44 51°24.236 2°49.006 14.1097 3.97833 32.498999 -3.020363
2011-10-27 14:53:44 51°24.054 2°49.096 14.1254 3.978744 32.501373 -3.020363
2011-10-27 14:54:44 51°23.872 2°49.183 14.1371 3.976672 32.4804 -3.020363
2011-10-27 14:55:44 51°23.687 2°49.246 14.1406 3.975014 32.463204 -3.020363
2011-10-27 14:56:44 51°23.502 2°49.319 14.1284 3.975014 32.456212 -3.020363
2011-10-27 14:57:44 51°23.373 2°49.514 14.1003 3.975532 32.456734 -3.020363
2011-10-27 14:58:44 51°23.31 2°49.824 14.0697 3.975014 32.447127 -3.020363
2011-10-27 14:59:45 51°23.253 2°50.147 14.0442 3.976464 32.456836 -3.020363
2011-10-27 15:00:44 51°23.202 2°50.458 14.0256 3.974703 32.451285 -3.020363
2011-10-27 15:01:44 51°23.144 2°50.769 14.0119 3.978952 32.506763 -3.020363
2011-10-27 15:02:45 51°23.021 2°51.018 14.0015 3.975947 32.487094 -3.020363
2011-10-27 15:03:44 51°22.844 2°51.105 13.9821 3.975222 32.510622 -3.020363
2011-10-27 15:04:44 51°22.656 2°51.17 13.9519 3.973253 32.511614 -3.020363
2011-10-27 15:05:44 51°22.468 2°51.255 13.909 3.969833 32.48463 -3.020363
2011-10-27 15:06:44 51°22.279 2°51.319 13.8422 3.970559 32.5088 -3.020363
2011-10-27 15:07:44 51°22.089 2°51.372 13.7545 3.965896 32.49644 -3.020363
2011-10-27 15:08:44 51°21.904 2°51.462 13.6637 3.964239 32.51295 -3.020363
2011-10-27 15:09:44 51°21.717 2°51.539 13.5737 3.962685 32.54809 -3.020363
2011-10-27 15:10:44 51°21.527 2°51.574 13.4701 3.958334 32.560526 -3.020363
2011-10-27 15:11:44 51°21.337 2°51.618 13.2421 3.953775 32.580342 -3.020363
2011-10-27 15:12:44 51°21.149 2°51.673 13.0871 3.949424 32.600031 -3.020363
2011-10-27 15:13:44 51°20.962 2°51.728 13.0719 3.943726 32.657419 -3.020363
2011-10-27 15:14:44 51°20.77 2°51.755 13.0356 3.935749 32.711431 -3.020363
2011-10-27 15:15:44 51°20.581 2°51.807 13.0446 3.924456 32.694652 -3.020363
2011-10-27 15:16:44 51°20.391 2°51.842 13.0785 3.913578 32.667247 -3.020363
2011-10-27 15:17:44 51°20.202 2°51.883 13.1315 3.904771 32.6323 -3.020363
2011-10-27 15:18:44 51°20.011 2°51.906 13.1719 3.899901 32.599967 -3.020363
2011-10-27 15:19:44 51°19.82 2°51.936 13.2068 3.892234 32.513413 -3.020363
2011-10-27 15:20:45 51°19.628 2°51.983 13.2588 3.891301 32.488886 -3.020363
2011-10-27 15:21:44 51°19.442 2°52.013 13.3309 3.890161 32.466053 -3.020363
2011-10-27 15:22:44 51°19.253 2°52.052 13.3697 3.890472 32.455284 -3.020363
2011-10-27 15:23:44 51°19.064 2°52.098 13.3981 3.890368 32.428475 -3.020363
2011-10-27 15:24:44 51°18.874 2°52.12 13.425 3.890886 32.403185 -3.020363
2011-10-27 15:25:44 51°18.685 2°52.165 13.4389 3.892336 32.388734 -3.020363
2011-10-27 15:26:44 51°18.497 2°52.205 13.4267 3.894511 32.371038 -3.020363
2011-10-27 15:27:44 51°18.306 2°52.203 13.9314 3.920725 32.570131 -3.020363
2011-10-27 15:28:45 51°18.111 2°52.19 14.0341 3.921346 32.549378 -3.020363
2011-10-27 15:29:44 51°17.924 2°52.207 14.1554 3.919585 32.532368 -3.020363
2011-10-27 15:30:44 51°17.734 2°52.204 14.2913 3.921967 32.537956 -3.020363
2011-10-27 15:31:44 51°17.543 2°52.216 14.3997 3.924765 32.557384 -3.020363
2011-10-27 15:32:44 51°17.354 2°52.263 14.4851 3.926941 32.564622 -3.020363
2011-10-27 15:33:44 51°17.166 2°52.312 14.6025 3.925386 32.497447 -3.020363
2011-10-27 15:34:44 51°16.982 2°52.395 14.7032 3.484069 28.458019 -3.020363
2011-10-27 15:35:44 51°16.807 2°52.522 14.8261 2.97644 23.882946 -3.020363
2011-10-27 15:36:44 51°16.639 2°52.674 14.9275 1.944178 14.962609 -3.020363
2011-10-27 15:37:45 51°16.467 2°52.833 15.0514 1.89093 14.50048 -3.020363
2011-10-27 15:38:44 51°16.295 2°52.976 15.1588 1.867609 14.289964 -3.020363
2011-10-27 15:39:44 51°16.13 2°53.149 15.2781 1.862862 14.237147 -3.020363
2011-10-27 15:40:44 51°15.972 2°53.339 15.382 1.860076 14.199514 -3.020363
2011-10-27 15:41:44 51°15.812 2°53.525 15.5073 1.824685 13.891464 -3.020363
2011-10-27 15:42:44 51°15.652 2°53.711 15.5949 0.807073 5.744952 -3.020363
2011-10-27 15:43:44 51°15.489 2°53.89 15.7048 0.198908 1.294208 -3.020363
2011-10-27 15:44:44 51°15.326 2°54.071 15.7752 0.073762 0.457829 -3.020363
2011-10-27 15:45:44 51°15.162 2°54.251 15.8947 0.050422 0.308301 -3.020363
2011-10-27 15:46:44 51°15.004 2°54.439 15.9746 0.041991 0.254948 -3.020363
2011-10-27 15:47:45 51°14.844 2°54.63 16.0869 0.041169 0.249259 -3.020363
2011-10-27 15:48:44 51°14.688 2°54.807 16.1665 0.042505 0.258268 -3.020363
2011-10-27 15:49:44 51°14.53 2°54.991 16.2318 0.042917 0.260692 -3.020363
2011-10-27 15:50:44 51°14.373 2°55.175 16.2884 0.042814 0.259623 -3.020363
2011-10-27 15:51:44 51°14.229 2°55.336 16.3358 0.042505 0.257307 -3.020363
2011-10-27 15:52:44 51°14.101 2°55.438 16.4258 0.042094 0.254392 -3.020363
2011-10-27 15:53:45 51°13.989 2°55.516 16.4861 0.041786 0.252114 -3.020363
2011-10-27 15:54:44 51°13.889 2°55.586 16.5488 0.041374 0.249188 -3.020363
2011-10-27 15:55:48 51°13.791 2°55.678 16.6505 0.041066 0.246922 -3.020363
2011-10-27 15:56:24 51°13.751 2°55.735 16.7061 0.04086 0.245286 -3.020363
2011-10-27 15:57:48 51°13.685 2°55.868 16.7369 0.040552 0.24303 -3.020363
2011-10-27 15:58:48 51°13.65 2°55.95 16.8605 0.040243 0.240781 -3.020363
2011-10-27 15:59:48 51°13.636 2°56.012 16.9461 0.039935 0.238555 -3.020363
2011-10-27 16:00:48 51°13.635 2°56.018 17.0214 0.039626 0.236317 -3.020363